createdAt,value
2017-12-05T00:00:12.640Z,50.07
2017-12-05T00:02:39.699Z,49.97
2017-12-05T00:05:07.025Z,50.73
2017-12-05T00:07:34.288Z,45.60
2017-12-05T00:10:01.577Z,43.97
2017-12-05T00:12:28.872Z,64.43
2017-12-05T00:14:56.140Z,48.23
2017-12-05T00:17:23.401Z,57.80
2017-12-05T00:19:50.758Z,55.70
2017-12-05T00:22:18.008Z,49.93
2017-12-05T00:24:45.297Z,48.63
2017-12-05T00:27:12.590Z,60.83
2017-12-05T00:29:39.854Z,49.30
2017-12-05T00:32:07.112Z,58.17
2017-12-05T00:34:34.398Z,50.87
2017-12-05T00:37:01.728Z,55.17
2017-12-05T00:39:29.084Z,47.37
2017-12-05T00:41:56.355Z,54.87
2017-12-05T00:44:23.696Z,55.20
2017-12-05T00:46:50.960Z,58.50
2017-12-05T00:49:18.221Z,56.60
2017-12-05T00:51:45.505Z,46.70
2017-12-05T00:54:12.808Z,55.30
2017-12-05T00:56:40.167Z,46.03
2017-12-05T00:59:07.425Z,45.50
2017-12-05T01:01:34.692Z,49.40
2017-12-05T01:04:02.030Z,53.43
2017-12-05T01:06:29.483Z,49.87
2017-12-05T01:08:56.749Z,51.10
2017-12-05T01:11:24.097Z,46.43
2017-12-05T01:13:51.377Z,61.23
2017-12-05T01:16:18.701Z,51.73
2017-12-05T01:18:45.966Z,48.70
2017-12-05T01:21:13.316Z,46.43
2017-12-05T01:23:40.572Z,47.20
2017-12-05T01:26:07.868Z,48.43
2017-12-05T01:28:35.173Z,45.13
2017-12-05T01:31:02.433Z,34.67
2017-12-05T01:33:29.722Z,44.83
2017-12-05T01:35:56.986Z,47.27
2017-12-05T01:38:24.264Z,46.33
2017-12-05T01:40:51.525Z,48.83
2017-12-05T01:43:18.825Z,55.47
2017-12-05T01:45:46.149Z,44.87
2017-12-05T01:48:13.353Z,48.80
2017-12-05T01:50:40.644Z,55.23
2017-12-05T01:53:07.910Z,57.03
2017-12-05T01:55:35.198Z,57.20
2017-12-05T01:58:02.459Z,43.60
2017-12-05T02:00:29.748Z,51.77
2017-12-05T02:02:57.000Z,56.63
2017-12-05T02:05:24.296Z,63.80
2017-12-05T02:07:51.550Z,51.70
2017-12-05T02:10:18.843Z,49.83
2017-12-05T02:12:46.201Z,46.77
2017-12-05T02:15:13.488Z,46.97
2017-12-05T02:17:40.753Z,51.70
2017-12-05T02:20:08.041Z,54.67
2017-12-05T02:22:35.292Z,45.13
2017-12-05T02:25:02.586Z,47.13
2017-12-05T02:27:29.878Z,56.17
2017-12-05T02:29:57.138Z,49.40
2017-12-05T02:32:24.425Z,55.33
2017-12-05T02:34:51.688Z,56.00
2017-12-05T02:37:18.976Z,54.50
2017-12-05T02:39:46.240Z,48.47
2017-12-05T02:42:13.543Z,47.33
2017-12-05T02:44:40.803Z,44.27
2017-12-05T02:47:08.473Z,43.67
2017-12-05T02:49:35.749Z,51.70
2017-12-05T02:52:03.005Z,59.13
2017-12-05T02:54:30.267Z,50.70
2017-12-05T02:56:57.556Z,45.60
2017-12-05T02:59:24.815Z,46.80
2017-12-05T03:01:52.093Z,45.93
2017-12-05T03:04:19.384Z,42.40
2017-12-05T03:06:46.644Z,54.40
2017-12-05T03:09:13.938Z,51.00
2017-12-05T03:11:41.197Z,52.83
2017-12-05T03:14:08.485Z,44.97
2017-12-05T03:16:35.742Z,49.57
2017-12-05T03:19:03.020Z,46.80
2017-12-05T03:21:30.284Z,40.50
2017-12-05T03:23:57.580Z,45.93
2017-12-05T03:26:24.841Z,43.67
2017-12-05T03:28:52.097Z,43.70
2017-12-05T03:31:19.381Z,49.63
2017-12-05T03:33:46.668Z,52.23
2017-12-05T03:36:13.964Z,54.10
2017-12-05T03:38:41.220Z,47.73
2017-12-05T03:41:08.522Z,49.10
2017-12-05T03:43:35.786Z,55.63
2017-12-05T03:46:03.049Z,52.40
2017-12-05T03:48:30.337Z,46.47
2017-12-05T03:50:57.630Z,47.60
2017-12-05T03:53:24.917Z,50.87
2017-12-05T03:55:52.196Z,43.63
2017-12-05T03:58:19.483Z,46.73
2017-12-05T04:00:46.742Z,46.20
2017-12-05T04:03:14.036Z,63.13
2017-12-05T04:05:41.296Z,50.27
2017-12-05T04:08:08.560Z,51.13
2017-12-05T04:10:35.947Z,53.73
2017-12-05T04:13:03.228Z,48.83
2017-12-05T04:15:30.493Z,41.10
2017-12-05T04:17:57.777Z,41.30
2017-12-05T04:20:25.076Z,50.40
2017-12-05T04:22:52.329Z,48.83
2017-12-05T04:25:19.595Z,42.10
2017-12-05T04:27:46.878Z,51.03
2017-12-05T04:30:14.161Z,46.67
2017-12-05T04:32:41.449Z,48.10
2017-12-05T04:35:08.714Z,45.47
2017-12-05T04:37:35.994Z,43.27
2017-12-05T04:40:03.260Z,48.50
2017-12-05T04:42:30.541Z,50.20
2017-12-05T04:44:57.829Z,43.97
2017-12-05T04:47:25.089Z,44.93
2017-12-05T04:49:52.354Z,46.40
2017-12-05T04:52:19.637Z,43.10
2017-12-05T04:54:46.900Z,38.83
2017-12-05T04:57:14.189Z,40.00
2017-12-05T04:59:41.483Z,37.07
2017-12-05T05:02:08.746Z,39.63
2017-12-05T05:04:36.033Z,38.73
2017-12-05T05:07:03.325Z,38.50
2017-12-05T05:09:30.588Z,36.97
2017-12-05T05:11:57.898Z,37.87
2017-12-05T05:14:25.241Z,51.03
2017-12-05T05:16:52.496Z,41.43
2017-12-05T05:19:19.810Z,37.90
2017-12-05T05:21:47.073Z,44.97
2017-12-05T05:24:14.365Z,40.23
2017-12-05T05:26:41.667Z,36.93
2017-12-05T05:29:08.930Z,46.47
2017-12-05T05:31:36.189Z,40.83
2017-12-05T05:34:03.576Z,37.80
2017-12-05T05:36:30.941Z,38.80
2017-12-05T05:38:58.201Z,36.83
2017-12-05T05:41:25.498Z,39.10
2017-12-05T05:43:52.748Z,42.87
2017-12-05T05:46:20.040Z,49.77
2017-12-05T05:48:47.301Z,41.90
2017-12-05T05:51:14.598Z,47.80
2017-12-05T05:53:41.859Z,34.50
2017-12-05T05:56:09.116Z,45.17
2017-12-05T05:58:36.410Z,44.13
2017-12-05T06:01:03.680Z,35.07
2017-12-05T06:03:30.941Z,44.83
2017-12-05T06:05:58.227Z,42.93
2017-12-05T06:08:25.493Z,37.00
2017-12-05T06:10:52.773Z,40.57
2017-12-05T06:13:20.060Z,31.03
2017-12-05T06:15:47.346Z,38.40
2017-12-05T06:18:14.610Z,36.37
2017-12-05T06:20:41.893Z,43.00
2017-12-05T06:23:09.152Z,48.20
2017-12-05T06:25:36.431Z,43.47
2017-12-05T06:28:03.698Z,42.27
2017-12-05T06:30:30.991Z,35.70
2017-12-05T06:32:58.251Z,36.60
2017-12-05T06:35:25.543Z,36.13
2017-12-05T06:37:52.804Z,34.27
2017-12-05T06:40:20.060Z,29.40
2017-12-05T06:42:47.350Z,38.30
2017-12-05T06:45:14.604Z,31.97
2017-12-05T06:47:41.911Z,36.10
2017-12-05T06:50:09.633Z,28.70
2017-12-05T06:52:36.870Z,31.23
2017-12-05T06:55:04.159Z,29.93
2017-12-05T06:57:31.441Z,31.63
2017-12-05T06:59:59.294Z,39.73
2017-12-05T07:02:26.579Z,34.38
2017-12-05T07:04:53.901Z,26.17
2017-12-05T07:07:21.253Z,27.20
2017-12-05T07:09:48.608Z,25.93
2017-12-05T07:12:15.964Z,32.50
2017-12-05T07:14:43.261Z,30.63
2017-12-05T07:17:10.524Z,32.77
2017-12-05T07:19:37.781Z,32.93
2017-12-05T07:22:05.065Z,29.20
2017-12-05T07:24:32.433Z,28.70
2017-12-05T07:26:59.725Z,34.50
2017-12-05T07:29:26.981Z,30.93
2017-12-05T07:31:54.247Z,28.20
2017-12-05T07:34:21.524Z,29.00
2017-12-05T07:36:48.812Z,23.20
2017-12-05T07:39:16.072Z,31.93
2017-12-05T07:41:43.360Z,33.47
2017-12-05T07:44:10.623Z,26.90
2017-12-05T07:46:37.902Z,29.80
2017-12-05T07:49:05.182Z,39.40
2017-12-05T07:51:32.538Z,32.47
2017-12-05T07:53:59.808Z,27.33
2017-12-05T07:56:27.072Z,28.30
2017-12-05T07:58:54.356Z,30.10
2017-12-05T08:01:21.628Z,28.13
2017-12-05T08:03:48.899Z,24.97
2017-12-05T08:06:16.176Z,26.13
2017-12-05T08:08:43.429Z,30.20
2017-12-05T08:11:10.709Z,27.70
2017-12-05T08:13:37.975Z,28.70
2017-12-05T08:16:05.259Z,26.67
2017-12-05T08:18:32.522Z,28.33
2017-12-05T08:20:59.799Z,23.80
2017-12-05T08:23:27.059Z,27.63
2017-12-05T08:25:54.336Z,22.90
2017-12-05T08:28:21.592Z,24.13
2017-12-05T08:30:48.857Z,26.20
2017-12-05T08:33:16.138Z,33.10
2017-12-05T08:35:43.387Z,29.77
2017-12-05T08:38:10.664Z,30.50
2017-12-05T08:40:37.929Z,25.50
2017-12-05T08:43:05.208Z,27.70
2017-12-05T08:45:32.468Z,24.47
2017-12-05T08:47:59.753Z,29.00
2017-12-05T08:50:27.009Z,37.47
2017-12-05T08:52:54.293Z,31.13
2017-12-05T08:55:21.559Z,30.20
2017-12-05T08:57:48.831Z,30.63
2017-12-05T09:00:16.092Z,29.57
2017-12-05T09:02:43.372Z,29.13
2017-12-05T09:05:10.632Z,29.53
2017-12-05T09:07:37.917Z,33.00
2017-12-05T09:10:05.181Z,28.83
2017-12-05T09:12:32.459Z,30.50
2017-12-05T09:14:59.762Z,27.73
2017-12-05T09:17:27.030Z,31.13
2017-12-05T09:19:54.318Z,29.87
2017-12-05T09:22:21.604Z,23.50
2017-12-05T09:24:48.885Z,23.23
2017-12-05T09:27:16.140Z,27.60
2017-12-05T09:29:43.420Z,25.10
2017-12-05T09:32:10.684Z,24.33
2017-12-05T09:34:37.965Z,26.33
2017-12-05T09:37:05.225Z,25.23
2017-12-05T09:39:32.504Z,27.00
2017-12-05T09:41:59.762Z,23.27
2017-12-05T09:44:27.036Z,27.33
2017-12-05T09:46:54.299Z,26.87
2017-12-05T09:49:21.580Z,31.63
2017-12-05T09:51:48.836Z,25.20
2017-12-05T09:54:16.149Z,27.50
2017-12-05T09:56:43.408Z,27.40
2017-12-05T09:59:10.659Z,28.47
2017-12-05T10:01:37.947Z,22.20
2017-12-05T10:04:05.204Z,21.63
2017-12-05T10:06:32.481Z,22.90
2017-12-05T10:08:59.845Z,26.60
2017-12-05T10:11:27.139Z,27.00
2017-12-05T10:13:54.505Z,27.70
2017-12-05T10:16:21.780Z,23.37
2017-12-05T10:18:49.041Z,21.77
2017-12-05T10:21:16.312Z,20.47
2017-12-05T10:23:43.569Z,19.00
2017-12-05T10:26:10.848Z,23.23
2017-12-05T10:28:38.109Z,19.57
2017-12-05T10:31:05.401Z,25.50
2017-12-05T10:33:32.663Z,22.97
2017-12-05T10:35:59.922Z,19.03
2017-12-05T10:38:27.215Z,19.03
2017-12-05T10:40:54.474Z,17.83
2017-12-05T10:43:21.752Z,21.43
2017-12-05T10:45:49.017Z,17.10
2017-12-05T10:48:16.289Z,21.70
2017-12-05T10:50:43.552Z,16.97
2017-12-05T10:53:10.833Z,16.40
2017-12-05T10:55:38.173Z,16.67
2017-12-05T10:58:05.445Z,18.53
2017-12-05T11:00:32.700Z,16.40
2017-12-05T11:03:00.029Z,21.60
2017-12-05T11:05:27.293Z,21.90
2017-12-05T11:07:54.573Z,17.37
2017-12-05T11:10:21.844Z,18.90
2017-12-05T11:12:49.125Z,20.33
2017-12-05T11:15:16.387Z,16.43
2017-12-05T11:17:43.668Z,17.47
2017-12-05T11:20:10.930Z,23.57
2017-12-05T11:22:38.197Z,17.93
2017-12-05T11:25:05.476Z,17.13
2017-12-05T11:27:32.737Z,19.77
2017-12-05T11:30:00.018Z,16.53
2017-12-05T11:32:27.277Z,17.60
2017-12-05T11:34:54.551Z,18.20
2017-12-05T11:37:21.887Z,18.47
2017-12-05T11:39:49.163Z,15.53
2017-12-05T11:42:16.417Z,21.07
2017-12-05T11:44:43.725Z,15.87
2017-12-05T11:47:10.983Z,15.77
2017-12-05T11:49:38.263Z,18.23
2017-12-05T11:52:05.527Z,18.07
2017-12-05T11:54:32.802Z,18.10
2017-12-05T11:57:00.060Z,17.90
2017-12-05T11:59:27.325Z,17.57
2017-12-05T12:01:54.820Z,17.33
2017-12-05T12:04:22.085Z,19.57
2017-12-05T12:06:49.368Z,17.63
2017-12-05T12:09:16.624Z,15.23
2017-12-05T12:11:43.900Z,14.30
2017-12-05T12:14:11.167Z,16.47
2017-12-05T12:16:38.448Z,16.27
2017-12-05T12:19:05.706Z,16.40
2017-12-05T12:21:32.985Z,19.13
2017-12-05T12:24:00.247Z,16.10
2017-12-05T12:26:27.524Z,16.40
2017-12-05T12:28:54.798Z,16.70
2017-12-05T12:31:22.081Z,17.83
2017-12-05T12:33:49.337Z,15.37
2017-12-05T12:36:16.652Z,14.00
2017-12-05T12:38:43.901Z,17.73
2017-12-05T12:41:11.165Z,16.03
2017-12-05T12:43:38.444Z,16.03
2017-12-05T12:46:05.701Z,16.07
2017-12-05T12:48:32.973Z,18.10
2017-12-05T12:51:00.237Z,15.73
2017-12-05T12:53:27.517Z,16.40
2017-12-05T12:55:54.772Z,17.87
2017-12-05T12:58:22.048Z,21.57
2017-12-05T13:00:49.312Z,15.77
2017-12-05T13:03:16.590Z,15.90
2017-12-05T13:05:43.853Z,14.60
2017-12-05T13:08:11.124Z,18.37
2017-12-05T13:10:38.391Z,17.30
2017-12-05T13:13:05.663Z,15.60
2017-12-05T13:15:32.925Z,15.20
2017-12-05T13:18:01.037Z,15.30
2017-12-05T13:20:28.291Z,16.20
2017-12-05T13:22:55.572Z,16.50
2017-12-05T13:25:22.833Z,18.27
2017-12-05T13:27:50.097Z,18.77
2017-12-05T13:30:17.377Z,18.27
2017-12-05T13:32:44.636Z,17.33
2017-12-05T13:35:11.913Z,14.30
2017-12-05T13:37:39.175Z,21.43
2017-12-05T13:40:06.451Z,17.43
2017-12-05T13:42:33.710Z,18.77
2017-12-05T13:45:00.987Z,13.80
2017-12-05T13:47:28.247Z,16.90
2017-12-05T13:49:55.522Z,12.07
2017-12-05T13:52:22.788Z,19.10
2017-12-05T13:54:50.069Z,18.63
2017-12-05T13:57:17.327Z,15.93
2017-12-05T13:59:44.625Z,19.80
2017-12-05T14:02:11.982Z,17.03
2017-12-05T14:04:39.397Z,17.50
2017-12-05T14:07:06.673Z,14.97
2017-12-05T14:09:34.042Z,16.40
2017-12-05T14:12:01.309Z,16.57
2017-12-05T14:14:28.569Z,19.20
2017-12-05T14:16:55.845Z,17.83
2017-12-05T14:19:23.179Z,18.10
2017-12-05T14:21:50.465Z,16.40
2017-12-05T14:24:17.720Z,19.00
2017-12-05T14:26:45.001Z,14.30
2017-12-05T14:29:12.267Z,16.33
2017-12-05T14:31:39.546Z,16.33
2017-12-05T14:34:06.801Z,18.80
2017-12-05T14:36:34.083Z,18.03
2017-12-05T14:39:01.336Z,20.60
2017-12-05T14:41:28.637Z,20.00
2017-12-05T14:43:56.023Z,15.67
2017-12-05T14:46:23.343Z,19.23
2017-12-05T14:48:50.623Z,20.47
2017-12-05T14:51:17.882Z,17.00
2017-12-05T14:53:45.161Z,17.40
2017-12-05T14:56:12.428Z,27.10
2017-12-05T14:58:39.725Z,19.93
2017-12-05T15:01:06.989Z,20.90
2017-12-05T15:03:34.269Z,18.73
2017-12-05T15:06:01.525Z,20.90
2017-12-05T15:08:28.804Z,22.00
2017-12-05T15:10:56.069Z,20.77
2017-12-05T15:13:23.349Z,18.37
2017-12-05T15:15:50.609Z,19.90
2017-12-05T15:18:17.889Z,19.10
2017-12-05T15:20:45.208Z,20.93
2017-12-05T15:23:12.510Z,20.53
2017-12-05T15:25:39.764Z,21.60
2017-12-05T15:28:07.030Z,22.83
2017-12-05T15:30:34.309Z,27.20
2017-12-05T15:33:01.574Z,24.27
2017-12-05T15:35:28.849Z,20.87
2017-12-05T15:37:56.105Z,24.93
2017-12-05T15:40:23.387Z,23.47
2017-12-05T15:42:50.644Z,21.60
2017-12-05T15:45:17.949Z,19.80
2017-12-05T15:47:45.214Z,22.10
2017-12-05T15:50:12.497Z,20.40
2017-12-05T15:52:39.745Z,21.60
2017-12-05T15:55:07.036Z,22.20
2017-12-05T15:57:34.293Z,20.70
2017-12-05T16:00:01.574Z,20.17
2017-12-05T16:02:28.944Z,23.70
2017-12-05T16:04:56.218Z,23.63
2017-12-05T16:07:23.481Z,23.33
2017-12-05T16:09:50.798Z,23.63
2017-12-05T16:12:18.145Z,24.20
2017-12-05T16:14:45.404Z,29.80
2017-12-05T16:17:12.685Z,26.03
2017-12-05T16:19:40.009Z,24.10
2017-12-05T16:22:07.371Z,24.33
2017-12-05T16:24:34.629Z,23.13
2017-12-05T16:27:01.904Z,26.23
2017-12-05T16:29:29.165Z,22.10
2017-12-05T16:31:56.444Z,25.43
2017-12-05T16:34:23.737Z,29.67
2017-12-05T16:36:51.009Z,28.53
2017-12-05T16:39:18.276Z,22.40
2017-12-05T16:41:45.556Z,24.70
2017-12-05T16:44:12.840Z,25.67
2017-12-05T16:46:40.205Z,29.70
2017-12-05T16:49:07.464Z,21.97
2017-12-05T16:51:34.723Z,20.97
2017-12-05T16:54:02.108Z,27.90
2017-12-05T16:56:29.345Z,26.17
2017-12-05T16:58:56.625Z,24.30
2017-12-05T17:01:23.888Z,22.70
2017-12-05T17:03:51.165Z,23.70
2017-12-05T17:06:18.423Z,25.30
2017-12-05T17:08:45.701Z,23.57
2017-12-05T17:11:13.052Z,27.00
2017-12-05T17:13:40.329Z,25.07
2017-12-05T17:16:07.656Z,24.97
2017-12-05T17:18:34.933Z,25.53
2017-12-05T17:21:02.202Z,25.13
2017-12-05T17:23:29.472Z,24.93
2017-12-05T17:25:56.736Z,25.83
2017-12-05T17:28:24.012Z,24.30
2017-12-05T17:30:51.277Z,25.13
2017-12-05T17:33:18.632Z,26.83
2017-12-05T17:35:45.957Z,26.40
2017-12-05T17:38:13.244Z,27.40
2017-12-05T17:40:40.574Z,25.02
2017-12-05T17:43:07.837Z,26.83
2017-12-05T17:45:35.123Z,22.30
2017-12-05T17:48:02.380Z,23.87
2017-12-05T17:50:29.656Z,24.70
2017-12-05T17:52:56.918Z,25.37
2017-12-05T17:55:24.199Z,24.73
2017-12-05T17:57:51.462Z,23.70
2017-12-05T18:00:18.834Z,22.93
2017-12-05T18:02:46.093Z,22.67
2017-12-05T18:05:13.373Z,29.23
2017-12-05T18:07:40.694Z,24.70
2017-12-05T18:10:08.048Z,25.33
2017-12-05T18:12:35.313Z,26.77
2017-12-05T18:15:02.592Z,23.90
2017-12-05T18:17:29.853Z,21.47
2017-12-05T18:19:57.161Z,24.13
2017-12-05T18:22:24.425Z,25.83
2017-12-05T18:24:51.682Z,23.40
2017-12-05T18:27:18.967Z,23.43
2017-12-05T18:29:46.229Z,25.00
2017-12-05T18:32:13.642Z,28.17
2017-12-05T18:34:40.909Z,25.30
2017-12-05T18:37:08.245Z,28.23
2017-12-05T18:39:35.503Z,23.37
2017-12-05T18:42:02.856Z,25.30
2017-12-05T18:44:30.217Z,22.33
2017-12-05T18:46:57.566Z,25.30
2017-12-05T18:49:24.834Z,21.80
2017-12-05T18:51:52.105Z,22.77
2017-12-05T18:54:19.366Z,22.63
2017-12-05T18:56:46.641Z,25.20
2017-12-05T18:59:13.936Z,22.80
2017-12-05T19:01:41.291Z,21.60
2017-12-05T19:04:08.542Z,23.70
2017-12-05T19:06:35.809Z,27.03
2017-12-05T19:09:03.085Z,24.70
2017-12-05T19:11:30.345Z,26.33
2017-12-05T19:13:57.653Z,24.47
2017-12-05T19:16:24.913Z,23.80
2017-12-05T19:18:52.189Z,26.87
2017-12-05T19:21:19.449Z,22.47
2017-12-05T19:23:46.730Z,25.60
2017-12-05T19:26:13.999Z,22.20
2017-12-05T19:28:41.268Z,22.20
2017-12-05T19:31:08.528Z,22.07
2017-12-05T19:33:35.811Z,24.40
2017-12-05T19:36:03.074Z,25.40
2017-12-05T19:38:30.393Z,23.60
2017-12-05T19:40:57.648Z,21.20
2017-12-05T19:43:24.912Z,23.83
2017-12-05T19:45:52.197Z,23.83
2017-12-05T19:48:19.458Z,18.40
2017-12-05T19:50:46.736Z,24.50
2017-12-05T19:53:13.997Z,22.60
2017-12-05T19:55:41.278Z,22.47
2017-12-05T19:58:08.542Z,19.77
2017-12-05T20:00:35.812Z,22.03
2017-12-05T20:03:03.073Z,27.20
2017-12-05T20:05:30.386Z,21.33
2017-12-05T20:07:57.649Z,20.50
2017-12-05T20:10:24.992Z,19.47
2017-12-05T20:12:52.252Z,19.63
2017-12-05T20:15:19.528Z,16.70
2017-12-05T20:17:46.788Z,20.90
2017-12-05T20:20:14.075Z,18.30
2017-12-05T20:22:41.336Z,19.07
2017-12-05T20:25:08.618Z,19.60
2017-12-05T20:27:35.881Z,21.60
2017-12-05T20:30:03.160Z,17.40
2017-12-05T20:32:30.417Z,21.40
2017-12-05T20:34:57.692Z,19.53
2017-12-05T20:37:24.957Z,18.00
2017-12-05T20:39:52.217Z,20.03
2017-12-05T20:42:19.505Z,18.87
2017-12-05T20:44:46.769Z,20.70
2017-12-05T20:47:14.047Z,21.30
2017-12-05T20:49:41.102Z,19.20
2017-12-05T20:52:08.174Z,21.43
2017-12-05T20:54:35.224Z,23.07
2017-12-05T20:57:02.297Z,18.80
2017-12-05T20:59:29.356Z,20.13
2017-12-05T21:01:56.428Z,23.07
2017-12-05T21:04:23.482Z,22.53
2017-12-05T21:06:50.553Z,23.67
2017-12-05T21:09:17.610Z,21.03
2017-12-05T21:11:44.680Z,21.30
2017-12-05T21:14:11.733Z,21.70
2017-12-05T21:16:38.815Z,20.20
2017-12-05T21:19:05.864Z,20.90
2017-12-05T21:21:32.945Z,22.50
2017-12-05T21:24:00.029Z,19.53
2017-12-05T21:26:27.065Z,19.20
2017-12-05T21:28:54.137Z,20.87
2017-12-05T21:31:21.192Z,21.37
2017-12-05T21:33:48.265Z,22.23
2017-12-05T21:36:15.325Z,25.13
2017-12-05T21:38:42.402Z,25.77
2017-12-05T21:41:09.456Z,21.67
2017-12-05T21:43:36.529Z,25.40
2017-12-05T21:46:03.589Z,27.20
2017-12-05T21:48:30.657Z,23.33
2017-12-05T21:50:57.713Z,24.00
2017-12-05T21:53:24.794Z,27.67
2017-12-05T21:55:51.845Z,23.40
2017-12-05T21:58:18.899Z,24.27
2017-12-05T22:00:46.785Z,23.83
2017-12-05T22:03:13.841Z,20.17
2017-12-05T22:05:40.914Z,24.80
2017-12-05T22:08:07.969Z,24.80
2017-12-05T22:10:35.246Z,25.70
2017-12-05T22:13:02.513Z,27.50
2017-12-05T22:15:29.787Z,23.17
2017-12-05T22:17:57.045Z,26.10
2017-12-05T22:20:24.330Z,23.27
2017-12-05T22:22:51.588Z,24.97
2017-12-05T22:25:18.872Z,23.13
2017-12-05T22:27:46.129Z,22.97
2017-12-05T22:30:13.410Z,23.77
2017-12-05T22:32:40.669Z,21.27
2017-12-05T22:35:07.960Z,22.63
2017-12-05T22:37:35.221Z,25.27
2017-12-05T22:40:02.484Z,22.83
2017-12-05T22:42:29.764Z,21.23
2017-12-05T22:44:57.027Z,19.03
2017-12-05T22:47:24.301Z,22.30
2017-12-05T22:49:51.554Z,19.83
2017-12-05T22:52:18.904Z,20.13
2017-12-05T22:54:46.167Z,25.40
2017-12-05T22:57:13.441Z,19.87
2017-12-05T22:59:40.709Z,21.30
2017-12-05T23:02:07.988Z,20.70
2017-12-05T23:04:35.249Z,24.83
2017-12-05T23:07:02.533Z,22.90
2017-12-05T23:09:29.877Z,21.60
2017-12-05T23:11:57.156Z,19.40
2017-12-05T23:14:24.421Z,18.20
2017-12-05T23:16:51.716Z,20.23
2017-12-05T23:19:18.992Z,22.00
2017-12-05T23:21:46.253Z,22.43
2017-12-05T23:26:47.453Z,19.63
2017-12-05T23:29:14.733Z,21.20
2017-12-05T23:31:41.993Z,16.97
2017-12-05T23:34:09.277Z,16.27
2017-12-05T23:36:36.536Z,18.77
2017-12-05T23:39:03.924Z,19.60
2017-12-05T23:41:31.189Z,20.40
2017-12-05T23:43:58.472Z,19.90
2017-12-05T23:46:25.730Z,20.10
2017-12-05T23:48:53.018Z,16.53
2017-12-05T23:51:20.285Z,17.90
2017-12-05T23:53:47.567Z,16.27
2017-12-05T23:56:14.829Z,17.40
2017-12-05T23:58:42.101Z,18.83
